Time;durP1;ratioP1;P1;durP2;ratioP2;P2;SDS_P1;SDS_P2;PMS_P1;PMS_P2;Temp;Humidity;BMP_temperature;BMP_pressure;BME280_temperature;BME280_humidity;BME280_pressure;Samples;Min_cycle;Max_cycle;Signal;HPM_P1;HPM_P2
2022/03/23 00:01:19;;;;;;;38.08;27.02;;;17.90;82.70;;;;;;5036068;28;20091;-66
2022/03/23 00:03:46;;;;;;;33.55;24.67;;;18.00;82.70;;;;;;5036276;28;20048;-68
2022/03/23 00:06:13;;;;;;;33.42;25.98;;;17.80;79.90;;;;;;5020788;28;20042;-66
2022/03/23 00:08:39;;;;;;;38.88;26.70;;;17.50;82.60;;;;;;5036016;28;20088;-65
2022/03/23 00:11:04;;;;;;;36.67;25.10;;;18.10;82.90;;;;;;5035383;28;20502;-67
2022/03/23 00:13:30;;;;;;;35.83;25.65;;;17.80;82.80;;;;;;5018097;28;20049;-67
2022/03/23 00:15:57;;;;;;;34.55;25.35;;;;;;;;;;5036014;28;20091;-66
2022/03/23 00:18:22;;;;;;;34.50;26.92;;;17.90;82.60;;;;;;5035078;28;20045;-66
2022/03/23 00:20:48;;;;;;;37.08;25.70;;;;;;;;;;5036853;28;20053;-67
2022/03/23 00:23:15;;;;;;;35.25;25.75;;;;;;;;;;5034070;28;20045;-67
2022/03/23 00:25:41;;;;;;;35.30;26.40;;;17.70;82.30;;;;;;5034604;28;20053;-67
2022/03/23 00:28:07;;;;;;;34.60;25.83;;;17.90;82.70;;;;;;5029634;28;20037;-66
2022/03/23 00:30:33;;;;;;;36.35;26.25;;;17.90;82.80;;;;;;5034399;28;20063;-66
2022/03/23 00:33:02;;;;;;;34.92;25.98;;;17.70;82.70;;;;;;5034902;28;20044;-66
2022/03/23 00:35:28;;;;;;;35.85;25.60;;;17.90;82.90;;;;;;5036273;28;20047;-66
2022/03/23 00:37:55;;;;;;;36.88;26.77;;;17.80;82.80;;;;;;5035420;28;20108;-66
2022/03/23 00:40:21;;;;;;;40.67;28.20;;;;;;;;;;5036195;28;20115;-66
2022/03/23 00:42:48;;;;;;;35.50;26.17;;;;;;;;;;5035643;28;20120;-67
2022/03/23 00:45:13;;;;;;;37.40;27.55;;;17.80;82.90;;;;;;5035514;28;20440;-66
2022/03/23 00:47:40;;;;;;;35.83;26.05;;;17.80;83.00;;;;;;5030759;28;20124;-66
2022/03/23 00:50:06;;;;;;;38.13;27.23;;;17.90;83.00;;;;;;5034766;28;20042;-66
2022/03/23 00:52:32;;;;;;;36.70;26.88;;;17.90;82.80;;;;;;5035035;28;20125;-66
2022/03/23 00:54:58;;;;;;;36.17;27.50;;;17.90;83.00;;;;;;5017971;28;20132;-66
2022/03/23 00:57:23;;;;;;;33.97;26.30;;;17.90;82.80;;;;;;5034884;28;20053;-66
2022/03/23 00:59:50;;;;;;;36.30;27.27;;;;;;;;;;5034960;28;20044;-67
2022/03/23 01:02:16;;;;;;;39.58;28.33;;;;;;;;;;5035379;28;20046;-66
2022/03/23 01:04:41;;;;;;;37.53;27.25;;;17.90;82.90;;;;;;5030204;28;20049;-66
2022/03/23 01:07:08;;;;;;;37.83;27.45;;;17.90;82.80;;;;;;5033877;28;20052;-66
2022/03/23 01:09:33;;;;;;;36.42;27.30;;;17.90;82.90;;;;;;5034185;28;20061;-66
2022/03/23 01:11:59;;;;;;;39.75;27.85;;;18.00;83.00;;;;;;5035178;28;20487;-67
2022/03/23 01:14:25;;;;;;;37.85;27.88;;;17.80;81.50;;;;;;5035075;28;20046;-67
2022/03/23 01:16:51;;;;;;;35.15;25.98;;;18.00;82.90;;;;;;5034294;28;20447;-66
2022/03/23 01:19:17;;;;;;;40.40;27.88;;;17.90;82.90;;;;;;5034680;28;20037;-66
2022/03/23 01:21:47;;;;;;;41.42;29.02;;;17.60;82.80;;;;;;5000215;28;20077;-66
2022/03/23 01:24:12;;;;;;;37.03;27.40;;;17.80;82.80;;;;;;5019514;28;20052;-66
2022/03/23 01:26:38;;;;;;;41.45;28.67;;;17.60;82.90;;;;;;5023793;28;20041;-66
2022/03/23 01:29:04;;;;;;;38.70;28.77;;;17.80;82.80;;;;;;5034274;28;20423;-67
2022/03/23 01:31:30;;;;;;;40.47;29.17;;;17.70;80.20;;;;;;5034535;28;20071;-66
2022/03/23 01:33:59;;;;;;;40.47;29.02;;;17.80;83.00;;;;;;5036035;28;20037;-66
2022/03/23 01:36:28;;;;;;;38.08;28.30;;;17.80;83.10;;;;;;5038839;28;20053;-69
2022/03/23 01:38:54;;;;;;;39.45;29.10;;;;;;;;;;5031221;28;20041;-68
2022/03/23 01:41:20;;;;;;;38.85;29.25;;;17.80;82.90;;;;;;5013966;28;20056;-66
2022/03/23 01:43:46;;;;;;;40.85;28.75;;;17.60;82.90;;;;;;5021431;28;20120;-67
2022/03/23 01:46:12;;;;;;;46.30;31.02;;;17.70;83.00;;;;;;5048612;28;20180;-67
2022/03/23 01:48:38;;;;;;;39.13;28.55;;;17.70;83.10;;;;;;5023363;28;20044;-66
2022/03/23 01:51:03;;;;;;;38.97;27.75;;;17.70;83.50;;;;;;5016811;28;20124;-67
2022/03/23 01:53:29;;;;;;;37.25;28.63;;;17.80;83.00;;;;;;5034292;28;20402;-66
2022/03/23 01:55:55;;;;;;;39.33;28.73;;;17.80;83.10;;;;;;5039268;28;20037;-67
2022/03/23 01:58:21;;;;;;;38.97;28.80;;;17.70;83.00;;;;;;5040442;28;20037;-66
2022/03/23 02:00:47;;;;;;;35.05;27.02;;;17.70;82.80;;;;;;5033384;28;20085;-66
2022/03/23 02:03:13;;;;;;;38.38;28.45;;;17.70;82.80;;;;;;5033930;28;20127;-67
2022/03/23 02:05:38;;;;;;;39.08;29.20;;;17.60;82.80;;;;;;5034097;28;20041;-66
2022/03/23 02:08:05;;;;;;;41.03;28.70;;;17.70;80.10;;;;;;5043100;28;20499;-67
2022/03/23 02:10:31;;;;;;;40.53;28.90;;;;;;;;;;5033642;28;20045;-66
2022/03/23 02:12:57;;;;;;;40.78;29.00;;;17.80;83.00;;;;;;5028814;28;20500;-66
2022/03/23 02:15:25;;;;;;;41.42;29.70;;;17.80;82.90;;;;;;5032423;28;20048;-66
2022/03/23 02:17:53;;;;;;;39.03;28.50;;;17.30;82.60;;;;;;5033453;28;20120;-66
2022/03/23 02:20:19;;;;;;;40.22;30.35;;;17.80;82.80;;;;;;5033874;28;20069;-66
2022/03/23 02:22:45;;;;;;;41.78;30.02;;;17.90;82.90;;;;;;5033697;28;20450;-68
2022/03/23 02:25:10;;;;;;;41.25;29.38;;;17.40;82.80;;;;;;5033716;28;20180;-67
2022/03/23 02:27:37;;;;;;;40.42;28.88;;;17.70;78.80;;;;;;5033508;28;20092;-67
2022/03/23 02:30:07;;;;;;;38.40;29.13;;;17.60;79.50;;;;;;5029398;28;20037;-67
2022/03/23 02:32:32;;;;;;;43.03;29.40;;;17.60;80.00;;;;;;5033646;28;20074;-66
2022/03/23 02:35:00;;;;;;;42.45;30.10;;;17.60;82.70;;;;;;5015339;28;20159;-66
2022/03/23 02:37:26;;;;;;;41.03;29.27;;;17.50;82.80;;;;;;5033291;28;20403;-67
2022/03/23 02:39:52;;;;;;;41.58;30.38;;;17.40;82.50;;;;;;5035272;28;20458;-66
2022/03/23 02:42:18;;;;;;;44.38;30.98;;;17.50;82.60;;;;;;5033527;28;20049;-67
2022/03/23 02:44:44;;;;;;;40.63;30.23;;;17.60;82.60;;;;;;5031910;28;20049;-67
2022/03/23 02:47:10;;;;;;;38.08;29.60;;;17.70;82.80;;;;;;5015676;28;20132;-63
2022/03/23 02:49:36;;;;;;;41.08;28.95;;;17.50;82.60;;;;;;5034291;28;20060;-63
2022/03/23 02:52:02;;;;;;;43.78;30.55;;;17.80;82.90;;;;;;5033591;28;20038;-67
2022/03/23 03:03:24;;;;;;;39.78;29.92;;;17.50;82.50;;;;;;4958452;28;20064;-66
2022/03/23 03:05:50;;;;;;;38.15;28.52;;;17.50;82.50;;;;;;4954409;28;20126;-67
2022/03/23 03:11:00;;;;;;;40.33;29.05;;;17.60;82.40;;;;;;4970683;28;20050;-64
2022/03/23 03:13:27;;;;;;;41.08;30.15;;;17.50;82.40;;;;;;4970371;28;20509;-66
2022/03/23 03:15:53;;;;;;;41.17;31.05;;;17.50;82.40;;;;;;4967706;28;20051;-66
2022/03/23 03:18:19;;;;;;;37.85;29.38;;;17.60;82.40;;;;;;4960142;28;20043;-66
2022/03/23 03:20:45;;;;;;;40.45;29.02;;;17.40;82.20;;;;;;4968037;28;20501;-67
2022/03/23 03:23:11;;;;;;;37.10;27.00;;;17.40;82.50;;;;;;4965984;28;20047;-66
2022/03/23 03:25:36;;;;;;;37.40;27.92;;;17.40;82.20;;;;;;4964937;28;20039;-66
2022/03/23 03:28:02;;;;;;;40.13;28.75;;;17.30;82.00;;;;;;4962817;28;20509;-66
2022/03/23 03:30:29;;;;;;;37.67;28.40;;;;;;;;;;4974758;28;20051;-62
2022/03/23 03:32:55;;;;;;;39.85;28.48;;;;;;;;;;4957662;28;20059;-63
2022/03/23 03:35:20;;;;;;;38.38;27.52;;;17.40;82.00;;;;;;4972541;28;20058;-63
2022/03/23 03:37:46;;;;;;;38.72;27.30;;;17.30;81.60;;;;;;5028822;28;20121;-62
2022/03/23 03:40:12;;;;;;;36.50;27.70;;;17.30;81.90;;;;;;5036806;28;20069;-63
2022/03/23 03:42:38;;;;;;;38.75;27.65;;;;;;;;;;5019229;28;20500;-66
2022/03/23 03:45:05;;;;;;;37.03;27.00;;;17.50;82.00;;;;;;5036356;28;20103;-62
2022/03/23 03:47:31;;;;;;;36.45;27.90;;;;;;;;;;5019141;28;20107;-62
2022/03/23 03:49:57;;;;;;;42.22;27.95;;;;;;;;;;5036265;28;20034;-65
2022/03/23 03:52:23;;;;;;;39.72;27.02;;;17.30;81.90;;;;;;5037116;28;20137;-63
2022/03/23 03:54:49;;;;;;;37.60;27.20;;;17.30;81.90;;;;;;5034378;28;20508;-62
2022/03/23 03:57:14;;;;;;;36.22;27.55;;;17.10;81.80;;;;;;5036260;28;20521;-64
2022/03/23 03:59:40;;;;;;;41.20;27.00;;;17.30;81.80;;;;;;5042515;28;20116;-67
2022/03/23 04:02:06;;;;;;;33.92;26.70;;;17.20;78.90;;;;;;5018728;28;20056;-67
2022/03/23 04:04:32;;;;;;;39.03;27.58;;;;;;;;;;5022425;28;20041;-66
2022/03/23 04:06:57;;;;;;;38.55;28.27;;;17.30;81.80;;;;;;5027187;28;20049;-66
2022/03/23 04:09:23;;;;;;;40.75;27.27;;;17.30;81.70;;;;;;5005808;28;20531;-67
2022/03/23 04:11:49;;;;;;;37.28;26.38;;;17.30;81.70;;;;;;5021779;28;20537;-66
2022/03/23 04:14:15;;;;;;;34.15;25.90;;;17.10;81.70;;;;;;5035077;28;20057;-67
2022/03/23 04:16:41;;;;;;;37.58;26.33;;;17.30;81.60;;;;;;5036371;28;20100;-67
2022/03/23 04:19:07;;;;;;;34.25;25.85;;;17.40;78.80;;;;;;5035481;28;20041;-66
2022/03/23 04:21:33;;;;;;;36.60;25.20;;;17.20;81.50;;;;;;5036066;28;20045;-66
2022/03/23 04:23:59;;;;;;;35.55;25.85;;;17.20;81.40;;;;;;5035711;28;20100;-66
2022/03/23 04:26:25;;;;;;;38.38;27.98;;;17.30;78.60;;;;;;5035986;28;20034;-67
2022/03/23 04:28:51;;;;;;;35.55;25.45;;;17.10;81.30;;;;;;5031893;28;20041;-66
2022/03/23 04:31:16;;;;;;;33.28;24.98;;;17.30;81.50;;;;;;5036304;28;20033;-66
2022/03/23 04:33:42;;;;;;;36.15;25.95;;;16.80;81.00;;;;;;5025277;28;20042;-66
2022/03/23 04:36:09;;;;;;;34.00;25.75;;;;;;;;;;5029495;28;20171;-66
2022/03/23 04:38:35;;;;;;;35.42;25.10;;;;;;;;;;5017845;28;20057;-67
2022/03/23 04:41:02;;;;;;;34.30;25.25;;;;;;;;;;5035377;28;20121;-68
2022/03/23 04:43:28;;;;;;;32.83;24.73;;;16.90;78.10;;;;;;5035456;28;20060;-67
2022/03/23 04:45:54;;;;;;;40.25;25.08;;;17.20;81.00;;;;;;5016408;28;20050;-66
2022/03/23 04:48:19;;;;;;;35.15;24.80;;;17.10;80.80;;;;;;5019081;28;20052;-66
2022/03/23 04:50:47;;;;;;;33.70;25.60;;;17.00;80.70;;;;;;5035333;28;20046;-66
2022/03/23 04:53:13;;;;;;;34.30;25.33;;;;;;;;;;5044047;28;20041;-67
2022/03/23 04:55:39;;;;;;;36.78;25.98;;;17.10;80.80;;;;;;5034858;28;20045;-67
2022/03/23 04:58:05;;;;;;;37.88;25.00;;;17.10;80.80;;;;;;5034760;28;20056;-68
2022/03/23 05:00:30;;;;;;;36.25;25.45;;;17.40;80.90;;;;;;5016227;28;20055;-66
2022/03/23 05:02:56;;;;;;;37.88;24.65;;;17.10;77.80;;;;;;5023217;28;20080;-66
2022/03/23 05:05:22;;;;;;;31.38;23.60;;;17.20;80.80;;;;;;5025632;28;20099;-66
2022/03/23 05:07:47;;;;;;;33.58;25.23;;;17.10;80.60;;;;;;5032502;28;20103;-67
2022/03/23 05:10:14;;;;;;;31.88;23.88;;;17.00;80.40;;;;;;4998145;28;20057;-66
2022/03/23 05:12:42;;;;;;;35.28;24.95;;;17.10;80.50;;;;;;5023149;28;20461;-68
2022/03/23 05:15:08;;;;;;;32.45;23.27;;;16.90;80.40;;;;;;5015774;28;20077;-66
2022/03/23 05:17:35;;;;;;;32.17;23.52;;;16.80;77.10;;;;;;5031673;28;20457;-69
2022/03/23 05:20:01;;;;;;;32.10;23.45;;;16.80;80.20;;;;;;5029940;28;20399;-66
2022/03/23 05:22:27;;;;;;;30.35;23.58;;;17.00;80.30;;;;;;5035260;28;20049;-67
2022/03/23 05:24:53;;;;;;;30.83;22.90;;;17.00;80.20;;;;;;5033113;28;20095;-66
2022/03/23 05:27:19;;;;;;;36.65;24.45;;;17.10;80.30;;;;;;5015208;28;20068;-67
2022/03/23 05:29:45;;;;;;;32.72;23.60;;;;;;;;;;5014960;28;20056;-68
2022/03/23 05:32:16;;;;;;;33.88;23.30;;;;;;;;;;5020111;28;20042;-66
2022/03/23 05:34:48;;;;;;;31.45;23.50;;;17.00;80.10;;;;;;5034611;28;20060;-66
2022/03/23 05:37:15;;;;;;;33.20;23.10;;;17.00;80.00;;;;;;5015174;28;20405;-66
2022/03/23 05:39:41;;;;;;;30.75;22.58;;;;;;;;;;5015126;28;20074;-66
2022/03/23 05:42:07;;;;;;;32.72;22.60;;;17.00;79.90;;;;;;5017572;28;20049;-66
2022/03/23 05:44:34;;;;;;;31.20;23.35;;;16.90;79.70;;;;;;5034916;28;20041;-66
2022/03/23 05:47:00;;;;;;;31.83;21.88;;;17.00;79.80;;;;;;5034019;28;20037;-66
2022/03/23 05:49:25;;;;;;;32.53;23.27;;;16.90;79.70;;;;;;5034456;28;20062;-66
2022/03/23 05:51:52;;;;;;;31.70;21.92;;;17.10;79.60;;;;;;5031660;28;20049;-66
2022/03/23 05:54:18;;;;;;;31.23;22.33;;;17.00;79.60;;;;;;5034332;28;20041;-66
2022/03/23 05:56:44;;;;;;;33.00;23.08;;;16.80;79.40;;;;;;5049048;28;20088;-66
2022/03/23 05:59:10;;;;;;;29.58;21.88;;;17.00;79.40;;;;;;5034134;28;20072;-66
2022/03/23 06:01:36;;;;;;;30.90;22.27;;;16.90;79.40;;;;;;5034385;28;20137;-66
2022/03/23 06:04:02;;;;;;;29.08;22.75;;;17.20;76.70;;;;;;5033986;28;20124;-66
2022/03/23 06:06:28;;;;;;;36.08;21.80;;;17.10;79.30;;;;;;5036414;28;20394;-66
2022/03/23 06:08:54;;;;;;;29.13;21.08;;;17.00;79.10;;;;;;5031147;28;20065;-67
2022/03/23 06:11:20;;;;;;;30.27;20.90;;;17.30;79.30;;;;;;5034092;28;20091;-66
2022/03/23 06:13:45;;;;;;;32.00;21.63;;;17.10;79.00;;;;;;5019893;28;20129;-66
2022/03/23 06:16:14;;;;;;;30.92;21.70;;;17.00;75.40;;;;;;5014920;28;20041;-66
2022/03/23 06:18:40;;;;;;;31.73;22.05;;;17.20;78.90;;;;;;5021543;28;20463;-66
2022/03/23 06:21:06;;;;;;;28.90;20.88;;;17.20;76.00;;;;;;5027312;28;20376;-66
2022/03/23 06:23:32;;;;;;;29.20;20.05;;;17.40;78.80;;;;;;5030998;28;20084;-66
2022/03/23 06:25:58;;;;;;;29.40;20.92;;;17.30;78.60;;;;;;5016693;28;20045;-66
2022/03/23 06:28:23;;;;;;;29.90;21.45;;;17.40;75.60;;;;;;5027815;28;20045;-66
2022/03/23 06:30:53;;;;;;;29.58;20.60;;;17.30;73.70;;;;;;4996294;28;20049;-66
2022/03/23 06:33:19;;;;;;;29.83;20.23;;;;;;;;;;5014606;28;20085;-69
2022/03/23 06:35:45;;;;;;;29.10;21.08;;;;;;;;;;5014546;28;20065;-68
2022/03/23 06:38:14;;;;;;;27.27;19.75;;;17.60;78.10;;;;;;5016345;28;20133;-66
2022/03/23 06:40:40;;;;;;;26.23;19.77;;;17.90;78.20;;;;;;5015583;28;20033;-66
2022/03/23 06:43:07;;;;;;;28.77;20.60;;;17.90;78.00;;;;;;5016686;28;20570;-66
2022/03/23 06:45:33;;;;;;;30.05;21.00;;;18.00;77.90;;;;;;5013922;28;20041;-66
2022/03/23 06:47:58;;;;;;;26.40;19.45;;;18.30;77.90;;;;;;5015087;28;20038;-62
2022/03/23 06:50:24;;;;;;;25.73;20.00;;;18.20;77.70;;;;;;5020938;28;20060;-61
2022/03/23 06:52:50;;;;;;;26.95;19.58;;;18.30;77.60;;;;;;5029605;28;20511;-62
2022/03/23 06:55:16;;;;;;;27.40;19.15;;;18.40;77.50;;;;;;5015371;28;20073;-61
2022/03/23 06:57:42;;;;;;;28.80;20.17;;;18.50;77.40;;;;;;5013970;28;20514;-61
2022/03/23 07:00:13;;;;;;;24.27;19.33;;;18.50;77.30;;;;;;5016062;28;20127;-61
2022/03/23 07:02:42;;;;;;;25.60;18.77;;;18.70;72.50;;;;;;5013897;28;20080;-61
2022/03/23 07:05:09;;;;;;;27.33;18.55;;;18.80;77.10;;;;;;5013346;28;20030;-63
2022/03/23 07:07:36;;;;;;;20.92;17.02;;;19.00;77.10;;;;;;5014031;28;20050;-63
2022/03/23 07:10:02;;;;;;;21.88;17.35;;;19.10;76.90;;;;;;5012323;28;20183;-63
2022/03/23 07:12:29;;;;;;;25.60;18.40;;;;;;;;;;5032945;28;20444;-63
2022/03/23 07:14:55;;;;;;;24.65;19.33;;;19.40;76.70;;;;;;5033614;28;20048;-63
2022/03/23 07:17:20;;;;;;;23.33;17.73;;;19.20;76.40;;;;;;5032604;28;20045;-63
2022/03/23 07:19:46;;;;;;;24.20;17.58;;;19.60;76.60;;;;;;5032900;28;20479;-66
2022/03/23 07:22:12;;;;;;;23.52;17.42;;;19.60;73.90;;;;;;5033229;28;20049;-65
2022/03/23 07:24:38;;;;;;;24.27;18.23;;;19.60;76.30;;;;;;5032888;28;20407;-63
2022/03/23 07:27:04;;;;;;;23.13;18.15;;;;;;;;;;5014826;28;20124;-66
2022/03/23 07:29:30;;;;;;;25.38;18.55;;;19.70;76.00;;;;;;5032256;28;20049;-69
2022/03/23 07:31:56;;;;;;;22.88;17.15;;;19.80;76.00;;;;;;5029879;28;20061;-65
2022/03/23 07:34:22;;;;;;;24.38;18.33;;;;;;;;;;5023589;28;20038;-63
2022/03/23 07:36:48;;;;;;;20.58;16.83;;;20.00;75.90;;;;;;5019699;28;20394;-63
2022/03/23 07:39:16;;;;;;;24.92;18.15;;;20.00;72.70;;;;;;5015743;28;20049;-64
2022/03/23 07:41:43;;;;;;;21.70;17.48;;;20.10;75.60;;;;;;5032191;28;20033;-63
2022/03/23 07:44:09;;;;;;;21.27;16.85;;;20.40;75.60;;;;;;5026493;28;20064;-61
2022/03/23 07:46:35;;;;;;;21.48;16.92;;;20.10;72.30;;;;;;5030489;28;20038;-64
2022/03/23 07:49:01;;;;;;;20.08;17.38;;;;;;;;;;5013262;28;20041;-62
2022/03/23 07:51:27;;;;;;;22.65;17.60;;;20.20;72.00;;;;;;5031968;28;20383;-62
2022/03/23 07:53:54;;;;;;;19.33;15.40;;;;;;;;;;5031317;28;20045;-67
2022/03/23 07:56:20;;;;;;;22.38;16.48;;;20.60;75.10;;;;;;5030548;28;20045;-63
2022/03/23 07:58:45;;;;;;;21.95;16.10;;;20.70;75.10;;;;;;5014154;28;20775;-61
2022/03/23 08:01:11;;;;;;;20.58;16.25;;;20.70;75.00;;;;;;5033128;28;20048;-62
2022/03/23 08:03:37;;;;;;;20.13;16.10;;;20.70;74.80;;;;;;5031566;28;20124;-63
2022/03/23 08:06:02;;;;;;;18.92;15.65;;;20.50;74.70;;;;;;5013478;28;20132;-63
2022/03/23 08:08:28;;;;;;;20.15;16.27;;;20.90;73.40;;;;;;5007522;28;20050;-62
2022/03/23 08:10:54;;;;;;;19.00;15.32;;;20.80;74.50;;;;;;5024835;28;20065;-61
2022/03/23 08:13:20;;;;;;;19.75;16.25;;;20.70;74.30;;;;;;5031991;28;20053;-62
2022/03/23 08:15:46;;;;;;;19.35;15.73;;;21.00;74.40;;;;;;5033667;28;20052;-62
2022/03/23 08:18:15;;;;;;;20.58;16.27;;;20.70;74.30;;;;;;5036718;28;20052;-61
2022/03/23 08:20:41;;;;;;;19.67;15.70;;;20.90;74.20;;;;;;5035186;28;20045;-62
2022/03/23 08:23:11;;;;;;;20.38;15.88;;;21.10;74.20;;;;;;5036287;28;20108;-61
2022/03/23 08:25:41;;;;;;;20.73;15.90;;;21.20;73.60;;;;;;5031504;28;20040;-63
2022/03/23 08:28:07;;;;;;;20.55;16.40;;;21.10;74.10;;;;;;5045608;28;20049;-62
2022/03/23 08:30:33;;;;;;;19.45;14.75;;;21.30;74.20;;;;;;5056252;28;20056;-61
2022/03/23 08:32:59;;;;;;;21.13;15.95;;;21.50;74.10;;;;;;5035557;28;20049;-63
2022/03/23 08:35:25;;;;;;;17.85;14.95;;;21.30;71.40;;;;;;5036304;28;20041;-61
2022/03/23 08:37:51;;;;;;;20.15;15.07;;;21.10;73.90;;;;;;5032865;28;20053;-62
2022/03/23 08:40:17;;;;;;;20.15;15.98;;;21.30;73.90;;;;;;5031301;28;20042;-62
2022/03/23 08:42:43;;;;;;;21.75;14.57;;;21.30;73.90;;;;;;5028102;28;20506;-64
2022/03/23 08:45:09;;;;;;;19.70;14.75;;;21.40;73.90;;;;;;5031075;28;20183;-63
2022/03/23 08:47:35;;;;;;;22.92;14.57;;;21.60;74.00;;;;;;5018393;28;20124;-65
2022/03/23 08:50:02;;;;;;;19.65;15.20;;;21.20;73.80;;;;;;5036332;28;20049;-63
2022/03/23 08:52:30;;;;;;;23.40;15.40;;;21.40;73.70;;;;;;5016131;28;20140;-63
2022/03/23 08:54:57;;;;;;;21.67;15.18;;;21.60;73.70;;;;;;5035081;28;20045;-64
2022/03/23 08:57:23;;;;;;;18.42;14.45;;;21.50;73.70;;;;;;5034881;28;20081;-64
2022/03/23 08:59:49;;;;;;;19.60;14.57;;;;;;;;;;5025540;28;20145;-63
2022/03/23 09:02:15;;;;;;;22.92;16.02;;;21.70;73.70;;;;;;5025608;28;20140;-69
2022/03/23 09:04:41;;;;;;;20.45;15.32;;;21.70;73.60;;;;;;5034926;28;20080;-64
2022/03/23 09:07:06;;;;;;;21.60;14.73;;;21.70;73.60;;;;;;5035630;28;20104;-63
2022/03/23 09:09:32;;;;;;;19.73;15.27;;;21.80;73.50;;;;;;5033408;28;20045;-63
2022/03/23 09:11:58;;;;;;;17.90;14.02;;;;;;;;;;5007600;28;20432;-67
2022/03/23 09:14:24;;;;;;;20.20;14.65;;;21.80;73.50;;;;;;5012719;28;20069;-62
2022/03/23 09:16:50;;;;;;;22.73;14.35;;;21.80;73.50;;;;;;5014089;28;20072;-63
2022/03/23 09:19:20;;;;;;;20.52;14.95;;;21.70;73.30;;;;;;4997926;28;20042;-63
2022/03/23 09:21:47;;;;;;;23.30;14.85;;;21.70;73.10;;;;;;5015634;28;20117;-61
2022/03/23 09:24:13;;;;;;;18.50;14.95;;;21.50;73.20;;;;;;5010607;28;20125;-61
2022/03/23 09:26:41;;;;;;;18.88;14.45;;;21.70;73.10;;;;;;5014801;28;20396;-63
2022/03/23 09:29:10;;;;;;;18.25;14.50;;;21.80;73.20;;;;;;5018253;28;20085;-61
2022/03/23 09:31:36;;;;;;;20.52;14.70;;;21.80;73.20;;;;;;5015476;28;20046;-62
2022/03/23 09:34:02;;;;;;;20.65;13.85;;;21.70;70.20;;;;;;5012914;28;20446;-61
2022/03/23 09:39:13;;;;;;;22.08;14.00;;;21.80;73.20;;;;;;5000878;28;20459;-62
2022/03/23 09:41:40;;;;;;;18.75;13.27;;;21.80;73.20;;;;;;5015049;28;20116;-67
2022/03/23 09:44:07;;;;;;;19.42;13.98;;;21.70;73.10;;;;;;4996560;28;20065;-66
2022/03/23 09:46:33;;;;;;;19.05;14.25;;;21.70;70.10;;;;;;5015195;28;20049;-62
2022/03/23 09:48:59;;;;;;;20.60;14.57;;;21.70;72.80;;;;;;4995003;28;20049;-65
2022/03/23 09:51:25;;;;;;;20.67;15.23;;;21.90;72.80;;;;;;5000063;28;20038;-61
2022/03/23 09:53:52;;;;;;;19.67;15.13;;;21.50;72.60;;;;;;4994079;28;20085;-66
2022/03/23 09:56:17;;;;;;;20.58;14.75;;;21.70;72.50;;;;;;4995354;28;20073;-66
2022/03/23 09:58:43;;;;;;;21.40;15.88;;;21.80;72.50;;;;;;4995371;28;20113;-66
2022/03/23 10:01:28;;;;;;;20.77;14.95;;;21.60;72.20;;;;;;4995250;28;20492;-66
2022/03/23 10:04:12;;;;;;;21.95;15.45;;;21.70;72.10;;;;;;4994936;28;20053;-66
2022/03/23 10:07:06;;;;;;;37.97;17.17;;;21.40;71.80;;;;;;4995701;28;20054;-67
2022/03/23 10:10:02;;;;;;;21.70;15.02;;;21.70;71.80;;;;;;4995148;28;20046;-66
2022/03/23 10:12:53;;;;;;;21.90;15.38;;;21.70;71.70;;;;;;5013821;28;20065;-66
2022/03/23 10:15:47;;;;;;;19.17;15.05;;;21.70;71.50;;;;;;5014954;28;20046;-64
2022/03/23 10:18:50;;;;;;;21.73;16.83;;;21.60;71.00;;;;;;5034177;28;20523;-62
2022/03/23 10:21:16;;;;;;;23.95;16.05;;;21.60;70.80;;;;;;5034443;28;20411;-63
2022/03/23 10:24:15;;;;;;;20.80;15.30;;;21.70;70.70;;;;;;5032624;28;20045;-63
2022/03/23 10:26:42;;;;;;;18.73;15.77;;;21.60;70.20;;;;;;5014306;28;20408;-64
2022/03/23 10:29:22;;;;;;;25.58;16.80;;;21.70;69.80;;;;;;5031773;28;20099;-62
2022/03/23 10:31:58;;;;;;;20.30;15.32;;;21.60;69.70;;;;;;5032651;28;20052;-64
2022/03/23 10:34:24;;;;;;;20.55;16.17;;;21.40;69.80;;;;;;5034137;28;20041;-62
2022/03/23 10:36:54;;;;;;;26.77;15.63;;;21.50;67.10;;;;;;5032640;28;20500;-62
2022/03/23 10:39:31;;;;;;;20.75;15.50;;;21.70;70.10;;;;;;5034075;28;20049;-64
2022/03/23 10:41:58;;;;;;;17.95;14.50;;;21.20;69.70;;;;;;5031126;28;20034;-63
2022/03/23 10:44:24;;;;;;;20.52;14.40;;;21.60;69.90;;;;;;5031920;28;20053;-63
2022/03/23 10:46:50;;;;;;;18.48;14.85;;;21.60;70.00;;;;;;5034242;28;20053;-63
2022/03/23 10:49:16;;;;;;;18.55;14.80;;;21.70;69.80;;;;;;5033834;28;20049;-63
2022/03/23 10:51:42;;;;;;;21.17;15.93;;;21.40;69.80;;;;;;5032972;28;20041;-62
2022/03/23 10:54:14;;;;;;;19.55;15.30;;;21.60;69.90;;;;;;5015842;28;20081;-62
2022/03/23 10:56:41;;;;;;;17.27;14.20;;;21.50;70.10;;;;;;5032784;28;20138;-63
2022/03/23 10:59:16;;;;;;;19.25;14.25;;;21.60;70.30;;;;;;5028460;28;20368;-63
2022/03/23 11:02:08;;;;;;;18.98;14.20;;;21.60;67.50;;;;;;5033985;28;20045;-63
2022/03/23 11:04:43;;;;;;;17.93;13.47;;;21.60;70.70;;;;;;5033182;28;20132;-62
2022/03/23 11:07:25;;;;;;;16.25;13.15;;;21.80;70.80;;;;;;5020120;28;20049;-68
2022/03/23 11:18:08;;;;;;;16.73;12.40;;;21.60;70.60;;;;;;5033266;28;20052;-68
2022/03/23 11:20:47;;;;;;;17.67;12.30;;;21.70;70.70;;;;;;5033218;28;20124;-67
2022/03/23 11:23:25;;;;;;;15.20;12.27;;;21.70;70.70;;;;;;5033534;28;20485;-62
2022/03/23 11:25:55;;;;;;;15.98;11.93;;;21.80;70.50;;;;;;5015906;28;20117;-62
2022/03/23 11:28:21;;;;;;;15.32;12.07;;;21.70;70.20;;;;;;5033288;28;20054;-63
2022/03/23 11:30:48;;;;;;;16.40;11.95;;;21.90;69.80;;;;;;5032063;28;20565;-66
2022/03/23 11:33:21;;;;;;;16.67;11.95;;;21.70;69.10;;;;;;5002096;28;20058;-63
2022/03/23 11:35:50;;;;;;;18.20;11.70;;;21.70;69.80;;;;;;5013538;28;20105;-64
2022/03/23 11:38:20;;;;;;;17.38;10.75;;;21.90;67.40;;;;;;5013628;28;20104;-63
2022/03/23 11:40:47;;;;;;;20.73;11.95;;;21.80;69.80;;;;;;5013546;28;20451;-65
2022/03/23 11:43:15;;;;;;;17.05;11.55;;;22.10;67.50;;;;;;5008404;28;20049;-62
2022/03/23 11:45:43;;;;;;;18.20;13.18;;;21.90;67.10;;;;;;4996070;28;20038;-63
2022/03/23 11:48:20;;;;;;;17.73;12.48;;;21.90;67.90;;;;;;4991679;28;20042;-62
2022/03/23 11:51:15;;;;;;;19.52;12.45;;;21.90;67.70;;;;;;4998487;28;20053;-63
2022/03/23 11:54:11;;;;;;;20.17;11.52;;;21.80;68.20;;;;;;5016281;28;20411;-62
2022/03/23 11:56:46;;;;;;;17.95;11.23;;;21.70;68.10;;;;;;5033919;28;20499;-63
2022/03/23 11:59:24;;;;;;;13.55;10.55;;;21.90;68.20;;;;;;5036621;28;20057;-63
2022/03/23 12:01:50;;;;;;;16.80;11.48;;;22.00;68.30;;;;;;5037017;28;20049;-64
2022/03/23 12:04:18;;;;;;;16.88;10.85;;;22.20;68.20;;;;;;5036768;28;20124;-63
2022/03/23 12:06:45;;;;;;;18.42;11.15;;;22.10;68.40;;;;;;5035576;28;20052;-64
2022/03/23 12:09:47;;;;;;;17.92;11.45;;;22.30;68.50;;;;;;5036544;28;20086;-63
2022/03/23 12:12:27;;;;;;;15.38;11.18;;;22.20;68.50;;;;;;5036336;28;20060;-64
2022/03/23 12:14:52;;;;;;;18.42;10.73;;;22.10;68.70;;;;;;5035322;28;20049;-64
2022/03/23 12:17:19;;;;;;;17.98;11.13;;;22.30;68.50;;;;;;5036025;28;20045;-62
2022/03/23 12:19:52;;;;;;;21.13;10.35;;;22.10;68.50;;;;;;5036725;28;20112;-64
2022/03/23 12:22:35;;;;;;;14.05;10.48;;;22.20;68.50;;;;;;5036331;28;20072;-62
2022/03/23 12:25:11;;;;;;;18.17;10.93;;;22.30;64.40;;;;;;4998828;28;20050;-62
2022/03/23 12:27:51;;;;;;;12.93;9.65;;;22.20;68.60;;;;;;5027258;28;20047;-62
2022/03/23 12:30:25;;;;;;;25.25;11.05;;;22.10;68.30;;;;;;5013557;28;20053;-62
2022/03/23 12:32:52;;;;;;;17.17;10.40;;;22.30;64.30;;;;;;5027114;28;20448;-61
2022/03/23 12:35:34;;;;;;;22.90;11.48;;;22.00;67.90;;;;;;5018172;28;20128;-62
2022/03/23 12:38:01;;;;;;;17.33;9.95;;;22.10;67.40;;;;;;5055911;28;20052;-61
2022/03/23 12:40:40;;;;;;;17.52;9.90;;;22.40;67.70;;;;;;5023620;28;20046;-63
2022/03/23 12:43:06;;;;;;;16.67;10.73;;;22.30;67.90;;;;;;5017054;28;20388;-63
2022/03/23 12:45:33;;;;;;;17.38;10.88;;;22.20;67.70;;;;;;5016757;28;20046;-63
2022/03/23 12:48:05;;;;;;;16.75;10.70;;;22.10;67.90;;;;;;4998430;28;20050;-63
2022/03/23 12:58:49;;;;;;;17.70;9.10;;;22.10;68.20;;;;;;5016621;28;20404;-62
2022/03/23 13:01:19;;;;;;;14.95;8.90;;;22.00;68.20;;;;;;5000627;28;20029;-67
2022/03/23 13:03:44;;;;;;;19.45;9.05;;;22.30;67.00;;;;;;5034407;28;20039;-66
2022/03/23 13:06:14;;;;;;;20.13;9.50;;;22.00;68.10;;;;;;5035284;28;20418;-65
2022/03/23 13:08:49;;;;;;;18.25;9.05;;;22.00;68.30;;;;;;5035280;28;20404;-65
2022/03/23 13:11:25;;;;;;;21.05;9.30;;;22.10;66.70;;;;;;5035342;28;20061;-65
2022/03/23 13:13:58;;;;;;;14.80;9.00;;;22.20;68.40;;;;;;5030608;28;20116;-64